sensor_id;sensor_type;location;lat;lon;timestamp;P1;durP1;ratioP1;P2;durP2;ratioP2
11935;SDS011;6027;48.576;9.180;2022-11-23T00:02:25;6.90;;;3.73;;
11935;SDS011;6027;48.576;9.180;2022-11-23T00:04:50;4.83;;;3.60;;
11935;SDS011;6027;48.576;9.180;2022-11-23T00:07:16;5.57;;;4.10;;
11935;SDS011;6027;48.576;9.180;2022-11-23T00:09:41;6.17;;;3.80;;
11935;SDS011;6027;48.576;9.180;2022-11-23T00:12:07;7.27;;;4.07;;
11935;SDS011;6027;48.576;9.180;2022-11-23T00:14:32;6.37;;;3.47;;
11935;SDS011;6027;48.576;9.180;2022-11-23T00:16:58;5.90;;;3.00;;
11935;SDS011;6027;48.576;9.180;2022-11-23T00:19:23;6.00;;;3.20;;
11935;SDS011;6027;48.576;9.180;2022-11-23T00:21:49;4.00;;;2.80;;
11935;SDS011;6027;48.576;9.180;2022-11-23T00:24:14;4.83;;;2.80;;
11935;SDS011;6027;48.576;9.180;2022-11-23T00:26:39;5.30;;;3.20;;
11935;SDS011;6027;48.576;9.180;2022-11-23T00:29:05;7.07;;;3.70;;
11935;SDS011;6027;48.576;9.180;2022-11-23T00:31:30;9.00;;;4.87;;
11935;SDS011;6027;48.576;9.180;2022-11-23T00:33:56;9.47;;;5.33;;
11935;SDS011;6027;48.576;9.180;2022-11-23T00:36:22;6.40;;;4.43;;
11935;SDS011;6027;48.576;9.180;2022-11-23T00:38:49;8.47;;;5.07;;
11935;SDS011;6027;48.576;9.180;2022-11-23T00:41:17;9.33;;;5.37;;
11935;SDS011;6027;48.576;9.180;2022-11-23T00:43:44;8.97;;;5.83;;
11935;SDS011;6027;48.576;9.180;2022-11-23T00:46:20;7.00;;;4.80;;
11935;SDS011;6027;48.576;9.180;2022-11-23T00:48:47;10.13;;;4.80;;
11935;SDS011;6027;48.576;9.180;2022-11-23T00:51:15;8.37;;;5.23;;
11935;SDS011;6027;48.576;9.180;2022-11-23T00:53:43;9.30;;;5.17;;
11935;SDS011;6027;48.576;9.180;2022-11-23T00:56:09;7.80;;;5.00;;
11935;SDS011;6027;48.576;9.180;2022-11-23T00:58:34;10.23;;;5.70;;
11935;SDS011;6027;48.576;9.180;2022-11-23T01:01:10;11.23;;;5.87;;
11935;SDS011;6027;48.576;9.180;2022-11-23T01:03:38;8.87;;;5.50;;
11935;SDS011;6027;48.576;9.180;2022-11-23T01:06:06;9.87;;;5.47;;
11935;SDS011;6027;48.576;9.180;2022-11-23T01:08:34;10.03;;;4.97;;
11935;SDS011;6027;48.576;9.180;2022-11-23T01:11:00;8.43;;;4.10;;
11935;SDS011;6027;48.576;9.180;2022-11-23T01:13:28;6.00;;;4.07;;
11935;SDS011;6027;48.576;9.180;2022-11-23T01:15:54;8.40;;;3.83;;
11935;SDS011;6027;48.576;9.180;2022-11-23T01:18:19;6.40;;;3.20;;
11935;SDS011;6027;48.576;9.180;2022-11-23T01:20:45;7.23;;;3.53;;
11935;SDS011;6027;48.576;9.180;2022-11-23T01:23:10;5.90;;;3.40;;
11935;SDS011;6027;48.576;9.180;2022-11-23T01:25:35;6.27;;;3.17;;
11935;SDS011;6027;48.576;9.180;2022-11-23T01:28:01;4.50;;;3.17;;
11935;SDS011;6027;48.576;9.180;2022-11-23T01:30:26;5.23;;;2.70;;
11935;SDS011;6027;48.576;9.180;2022-11-23T01:32:52;5.27;;;2.87;;
11935;SDS011;6027;48.576;9.180;2022-11-23T01:35:17;7.17;;;3.13;;
11935;SDS011;6027;48.576;9.180;2022-11-23T01:37:43;6.33;;;3.10;;
11935;SDS011;6027;48.576;9.180;2022-11-23T01:40:08;6.20;;;2.93;;
11935;SDS011;6027;48.576;9.180;2022-11-23T01:45:31;5.53;;;2.87;;
11935;SDS011;6027;48.576;9.180;2022-11-23T01:48:10;5.00;;;2.67;;
11935;SDS011;6027;48.576;9.180;2022-11-23T01:50:40;6.93;;;2.50;;
11935;SDS011;6027;48.576;9.180;2022-11-23T01:53:07;5.70;;;3.23;;
11935;SDS011;6027;48.576;9.180;2022-11-23T01:55:32;5.57;;;2.47;;
11935;SDS011;6027;48.576;9.180;2022-11-23T01:57:58;5.27;;;2.70;;
11935;SDS011;6027;48.576;9.180;2022-11-23T02:00:25;6.13;;;3.00;;
11935;SDS011;6027;48.576;9.180;2022-11-23T02:02:55;6.27;;;3.00;;
11935;SDS011;6027;48.576;9.180;2022-11-23T02:05:24;5.80;;;3.23;;
11935;SDS011;6027;48.576;9.180;2022-11-23T02:07:53;8.67;;;3.83;;
11935;SDS011;6027;48.576;9.180;2022-11-23T02:10:20;4.97;;;3.53;;
11935;SDS011;6027;48.576;9.180;2022-11-23T02:12:47;8.67;;;3.87;;
11935;SDS011;6027;48.576;9.180;2022-11-23T02:15:12;6.50;;;3.77;;
11935;SDS011;6027;48.576;9.180;2022-11-23T02:17:37;6.63;;;4.00;;
11935;SDS011;6027;48.576;9.180;2022-11-23T02:22:36;5.63;;;3.50;;
11935;SDS011;6027;48.576;9.180;2022-11-23T02:25:12;8.47;;;4.13;;
11935;SDS011;6027;48.576;9.180;2022-11-23T02:28:00;6.43;;;4.20;;
11935;SDS011;6027;48.576;9.180;2022-11-23T02:30:27;6.57;;;4.20;;
11935;SDS011;6027;48.576;9.180;2022-11-23T02:32:54;5.73;;;4.07;;
11935;SDS011;6027;48.576;9.180;2022-11-23T02:35:20;6.17;;;4.30;;
11935;SDS011;6027;48.576;9.180;2022-11-23T02:37:45;6.23;;;3.80;;
11935;SDS011;6027;48.576;9.180;2022-11-23T02:40:19;7.70;;;4.23;;
11935;SDS011;6027;48.576;9.180;2022-11-23T02:43:06;5.33;;;4.10;;
11935;SDS011;6027;48.576;9.180;2022-11-23T02:48:18;6.07;;;4.40;;
11935;SDS011;6027;48.576;9.180;2022-11-23T02:50:44;6.40;;;4.33;;
11935;SDS011;6027;48.576;9.180;2022-11-23T02:53:10;8.50;;;4.20;;
11935;SDS011;6027;48.576;9.180;2022-11-23T02:55:37;7.63;;;4.10;;
11935;SDS011;6027;48.576;9.180;2022-11-23T02:58:02;8.53;;;4.07;;
11935;SDS011;6027;48.576;9.180;2022-11-23T03:00:29;7.33;;;4.30;;
11935;SDS011;6027;48.576;9.180;2022-11-23T03:02:54;6.20;;;4.47;;
11935;SDS011;6027;48.576;9.180;2022-11-23T03:05:20;6.20;;;4.93;;
11935;SDS011;6027;48.576;9.180;2022-11-23T03:07:46;8.77;;;5.23;;
11935;SDS011;6027;48.576;9.180;2022-11-23T03:10:12;6.73;;;5.27;;
11935;SDS011;6027;48.576;9.180;2022-11-23T03:12:37;6.17;;;4.93;;
11935;SDS011;6027;48.576;9.180;2022-11-23T03:15:03;7.43;;;4.40;;
11935;SDS011;6027;48.576;9.180;2022-11-23T03:17:29;5.80;;;4.47;;
11935;SDS011;6027;48.576;9.180;2022-11-23T03:19:57;8.83;;;4.70;;
11935;SDS011;6027;48.576;9.180;2022-11-23T03:22:23;8.27;;;4.40;;
11935;SDS011;6027;48.576;9.180;2022-11-23T03:24:48;7.40;;;4.20;;
11935;SDS011;6027;48.576;9.180;2022-11-23T03:27:14;6.73;;;3.93;;
11935;SDS011;6027;48.576;9.180;2022-11-23T03:29:39;8.43;;;4.00;;
11935;SDS011;6027;48.576;9.180;2022-11-23T03:32:05;6.37;;;3.90;;
11935;SDS011;6027;48.576;9.180;2022-11-23T03:34:30;6.67;;;3.83;;
11935;SDS011;6027;48.576;9.180;2022-11-23T03:36:56;5.37;;;3.63;;
11935;SDS011;6027;48.576;9.180;2022-11-23T03:39:21;6.37;;;3.57;;
11935;SDS011;6027;48.576;9.180;2022-11-23T03:41:46;7.67;;;3.30;;
11935;SDS011;6027;48.576;9.180;2022-11-23T03:44:12;7.30;;;3.70;;
11935;SDS011;6027;48.576;9.180;2022-11-23T03:46:37;7.90;;;3.40;;
11935;SDS011;6027;48.576;9.180;2022-11-23T03:49:03;3.53;;;3.20;;
11935;SDS011;6027;48.576;9.180;2022-11-23T03:51:28;4.00;;;2.90;;
11935;SDS011;6027;48.576;9.180;2022-11-23T03:53:54;5.90;;;3.10;;
11935;SDS011;6027;48.576;9.180;2022-11-23T03:56:19;6.10;;;3.50;;
11935;SDS011;6027;48.576;9.180;2022-11-23T03:58:45;5.07;;;3.40;;
11935;SDS011;6027;48.576;9.180;2022-11-23T04:01:10;7.50;;;4.13;;
11935;SDS011;6027;48.576;9.180;2022-11-23T04:03:36;6.03;;;4.40;;
11935;SDS011;6027;48.576;9.180;2022-11-23T04:06:01;5.93;;;4.53;;
11935;SDS011;6027;48.576;9.180;2022-11-23T04:08:47;9.80;;;4.67;;
11935;SDS011;6027;48.576;9.180;2022-11-23T04:11:12;5.87;;;4.10;;
11935;SDS011;6027;48.576;9.180;2022-11-23T04:13:38;5.97;;;3.57;;
11935;SDS011;6027;48.576;9.180;2022-11-23T04:16:03;5.10;;;3.40;;
11935;SDS011;6027;48.576;9.180;2022-11-23T04:18:31;6.10;;;3.60;;
11935;SDS011;6027;48.576;9.180;2022-11-23T04:20:56;5.63;;;3.43;;
11935;SDS011;6027;48.576;9.180;2022-11-23T04:23:22;7.00;;;3.40;;
11935;SDS011;6027;48.576;9.180;2022-11-23T04:25:47;5.60;;;3.40;;
11935;SDS011;6027;48.576;9.180;2022-11-23T04:28:13;5.80;;;4.07;;
11935;SDS011;6027;48.576;9.180;2022-11-23T04:30:38;7.70;;;4.00;;
11935;SDS011;6027;48.576;9.180;2022-11-23T04:33:04;5.83;;;3.90;;
11935;SDS011;6027;48.576;9.180;2022-11-23T04:35:29;5.93;;;4.63;;
11935;SDS011;6027;48.576;9.180;2022-11-23T04:37:54;10.57;;;5.30;;
11935;SDS011;6027;48.576;9.180;2022-11-23T04:40:20;9.50;;;5.90;;
11935;SDS011;6027;48.576;9.180;2022-11-23T04:42:45;14.07;;;9.60;;
11935;SDS011;6027;48.576;9.180;2022-11-23T04:45:11;13.63;;;8.70;;
11935;SDS011;6027;48.576;9.180;2022-11-23T04:47:36;11.13;;;6.13;;
11935;SDS011;6027;48.576;9.180;2022-11-23T04:50:02;12.60;;;8.07;;
11935;SDS011;6027;48.576;9.180;2022-11-23T04:52:28;14.10;;;9.93;;
11935;SDS011;6027;48.576;9.180;2022-11-23T04:54:53;17.43;;;11.23;;
11935;SDS011;6027;48.576;9.180;2022-11-23T04:57:19;8.10;;;6.30;;
11935;SDS011;6027;48.576;9.180;2022-11-23T04:59:44;12.03;;;6.87;;
11935;SDS011;6027;48.576;9.180;2022-11-23T05:02:09;12.20;;;7.67;;
11935;SDS011;6027;48.576;9.180;2022-11-23T05:04:35;10.33;;;8.10;;
11935;SDS011;6027;48.576;9.180;2022-11-23T05:07:00;12.83;;;9.33;;
11935;SDS011;6027;48.576;9.180;2022-11-23T05:09:26;12.93;;;8.60;;
11935;SDS011;6027;48.576;9.180;2022-11-23T05:11:51;13.03;;;7.97;;
11935;SDS011;6027;48.576;9.180;2022-11-23T05:14:17;13.70;;;8.80;;
11935;SDS011;6027;48.576;9.180;2022-11-23T05:16:42;12.83;;;8.50;;
11935;SDS011;6027;48.576;9.180;2022-11-23T05:19:08;11.97;;;8.30;;
11935;SDS011;6027;48.576;9.180;2022-11-23T05:21:33;9.67;;;7.63;;
11935;SDS011;6027;48.576;9.180;2022-11-23T05:23:59;12.07;;;10.00;;
11935;SDS011;6027;48.576;9.180;2022-11-23T05:26:24;14.07;;;9.87;;
11935;SDS011;6027;48.576;9.180;2022-11-23T05:28:50;11.30;;;9.20;;
11935;SDS011;6027;48.576;9.180;2022-11-23T05:31:15;13.90;;;8.13;;
11935;SDS011;6027;48.576;9.180;2022-11-23T05:36:14;9.63;;;6.73;;
11935;SDS011;6027;48.576;9.180;2022-11-23T05:38:40;10.23;;;7.50;;
11935;SDS011;6027;48.576;9.180;2022-11-23T05:41:06;11.80;;;7.93;;
11935;SDS011;6027;48.576;9.180;2022-11-23T05:43:31;10.10;;;6.93;;
11935;SDS011;6027;48.576;9.180;2022-11-23T05:45:58;9.27;;;6.17;;
11935;SDS011;6027;48.576;9.180;2022-11-23T05:48:24;8.50;;;5.77;;
11935;SDS011;6027;48.576;9.180;2022-11-23T05:50:49;9.80;;;5.60;;
11935;SDS011;6027;48.576;9.180;2022-11-23T05:53:15;8.97;;;5.00;;
11935;SDS011;6027;48.576;9.180;2022-11-23T05:55:41;6.80;;;4.80;;
11935;SDS011;6027;48.576;9.180;2022-11-23T05:58:06;10.20;;;5.00;;
11935;SDS011;6027;48.576;9.180;2022-11-23T06:00:32;5.53;;;4.70;;
11935;SDS011;6027;48.576;9.180;2022-11-23T06:03:00;7.10;;;4.87;;
11935;SDS011;6027;48.576;9.180;2022-11-23T06:05:26;8.20;;;5.03;;
11935;SDS011;6027;48.576;9.180;2022-11-23T06:07:52;7.20;;;5.50;;
11935;SDS011;6027;48.576;9.180;2022-11-23T06:10:18;12.80;;;9.27;;
11935;SDS011;6027;48.576;9.180;2022-11-23T06:12:44;11.60;;;8.17;;
11935;SDS011;6027;48.576;9.180;2022-11-23T06:15:10;11.50;;;8.97;;
11935;SDS011;6027;48.576;9.180;2022-11-23T06:17:36;13.20;;;10.70;;
11935;SDS011;6027;48.576;9.180;2022-11-23T06:20:03;10.30;;;8.00;;
11935;SDS011;6027;48.576;9.180;2022-11-23T06:22:30;8.33;;;6.43;;
11935;SDS011;6027;48.576;9.180;2022-11-23T06:24:55;11.13;;;8.83;;
11935;SDS011;6027;48.576;9.180;2022-11-23T06:27:21;28.17;;;24.57;;
11935;SDS011;6027;48.576;9.180;2022-11-23T06:29:46;25.40;;;18.67;;
11935;SDS011;6027;48.576;9.180;2022-11-23T06:32:11;15.60;;;11.80;;
11935;SDS011;6027;48.576;9.180;2022-11-23T06:34:37;23.23;;;16.83;;
11935;SDS011;6027;48.576;9.180;2022-11-23T06:37:02;11.70;;;7.83;;
11935;SDS011;6027;48.576;9.180;2022-11-23T06:39:28;9.23;;;7.80;;
11935;SDS011;6027;48.576;9.180;2022-11-23T06:41:53;11.17;;;8.30;;
11935;SDS011;6027;48.576;9.180;2022-11-23T06:44:19;9.80;;;7.60;;
11935;SDS011;6027;48.576;9.180;2022-11-23T06:46:44;11.03;;;9.07;;
11935;SDS011;6027;48.576;9.180;2022-11-23T06:49:10;10.20;;;9.10;;
11935;SDS011;6027;48.576;9.180;2022-11-23T06:51:35;18.50;;;12.10;;
11935;SDS011;6027;48.576;9.180;2022-11-23T06:54:00;14.83;;;11.10;;
11935;SDS011;6027;48.576;9.180;2022-11-23T06:56:26;18.93;;;12.17;;
11935;SDS011;6027;48.576;9.180;2022-11-23T06:58:52;15.97;;;10.20;;
11935;SDS011;6027;48.576;9.180;2022-11-23T07:01:17;11.73;;;8.50;;
11935;SDS011;6027;48.576;9.180;2022-11-23T07:03:43;11.70;;;9.93;;
11935;SDS011;6027;48.576;9.180;2022-11-23T07:06:08;14.23;;;10.43;;
11935;SDS011;6027;48.576;9.180;2022-11-23T07:08:35;7.40;;;6.13;;
11935;SDS011;6027;48.576;9.180;2022-11-23T07:11:07;7.30;;;4.57;;
11935;SDS011;6027;48.576;9.180;2022-11-23T07:13:34;8.33;;;5.60;;
11935;SDS011;6027;48.576;9.180;2022-11-23T07:16:00;12.77;;;7.73;;
11935;SDS011;6027;48.576;9.180;2022-11-23T07:18:25;16.10;;;9.57;;
11935;SDS011;6027;48.576;9.180;2022-11-23T07:20:51;13.77;;;8.97;;
11935;SDS011;6027;48.576;9.180;2022-11-23T07:23:17;14.83;;;9.20;;
11935;SDS011;6027;48.576;9.180;2022-11-23T07:25:42;12.57;;;8.50;;
11935;SDS011;6027;48.576;9.180;2022-11-23T07:28:10;11.98;;;8.27;;
11935;SDS011;6027;48.576;9.180;2022-11-23T07:30:38;11.00;;;8.50;;
11935;SDS011;6027;48.576;9.180;2022-11-23T07:33:05;12.60;;;8.10;;
11935;SDS011;6027;48.576;9.180;2022-11-23T07:35:35;14.87;;;7.90;;
11935;SDS011;6027;48.576;9.180;2022-11-23T07:38:02;14.73;;;8.77;;
11935;SDS011;6027;48.576;9.180;2022-11-23T07:40:28;10.07;;;6.67;;
11935;SDS011;6027;48.576;9.180;2022-11-23T07:43:00;10.20;;;7.00;;
11935;SDS011;6027;48.576;9.180;2022-11-23T07:45:28;9.17;;;6.97;;
11935;SDS011;6027;48.576;9.180;2022-11-23T07:48:00;11.80;;;6.83;;
11935;SDS011;6027;48.576;9.180;2022-11-23T07:50:28;11.17;;;7.00;;
11935;SDS011;6027;48.576;9.180;2022-11-23T07:52:55;7.50;;;5.23;;
11935;SDS011;6027;48.576;9.180;2022-11-23T07:55:21;9.20;;;6.70;;
11935;SDS011;6027;48.576;9.180;2022-11-23T07:57:50;14.57;;;10.30;;
11935;SDS011;6027;48.576;9.180;2022-11-23T08:00:21;13.13;;;9.37;;
11935;SDS011;6027;48.576;9.180;2022-11-23T08:02:49;14.70;;;12.37;;
11935;SDS011;6027;48.576;9.180;2022-11-23T08:05:15;16.03;;;13.93;;
11935;SDS011;6027;48.576;9.180;2022-11-23T08:07:40;15.80;;;13.47;;
11935;SDS011;6027;48.576;9.180;2022-11-23T08:10:06;15.53;;;13.10;;
11935;SDS011;6027;48.576;9.180;2022-11-23T08:12:32;15.90;;;12.20;;
11935;SDS011;6027;48.576;9.180;2022-11-23T08:14:57;12.27;;;8.57;;
11935;SDS011;6027;48.576;9.180;2022-11-23T08:17:23;11.17;;;7.30;;
11935;SDS011;6027;48.576;9.180;2022-11-23T08:19:48;11.03;;;7.83;;
11935;SDS011;6027;48.576;9.180;2022-11-23T08:22:14;11.80;;;7.60;;
11935;SDS011;6027;48.576;9.180;2022-11-23T08:24:39;9.43;;;7.37;;
11935;SDS011;6027;48.576;9.180;2022-11-23T08:27:05;9.83;;;7.27;;
11935;SDS011;6027;48.576;9.180;2022-11-23T08:29:30;9.30;;;7.70;;
11935;SDS011;6027;48.576;9.180;2022-11-23T08:31:56;9.73;;;7.43;;
11935;SDS011;6027;48.576;9.180;2022-11-23T08:34:22;9.67;;;7.70;;
11935;SDS011;6027;48.576;9.180;2022-11-23T08:36:50;7.47;;;5.80;;
11935;SDS011;6027;48.576;9.180;2022-11-23T08:39:16;9.53;;;5.40;;
11935;SDS011;6027;48.576;9.180;2022-11-23T08:41:43;7.27;;;5.37;;
11935;SDS011;6027;48.576;9.180;2022-11-23T08:46:44;7.83;;;4.50;;
11935;SDS011;6027;48.576;9.180;2022-11-23T08:49:09;7.27;;;4.90;;
11935;SDS011;6027;48.576;9.180;2022-11-23T08:51:35;8.13;;;6.67;;
11935;SDS011;6027;48.576;9.180;2022-11-23T08:54:00;9.33;;;6.87;;
11935;SDS011;6027;48.576;9.180;2022-11-23T08:56:26;8.93;;;5.70;;
11935;SDS011;6027;48.576;9.180;2022-11-23T08:58:51;7.53;;;4.27;;
11935;SDS011;6027;48.576;9.180;2022-11-23T09:01:17;8.20;;;4.23;;
11935;SDS011;6027;48.576;9.180;2022-11-23T09:03:42;7.73;;;3.70;;
11935;SDS011;6027;48.576;9.180;2022-11-23T09:06:09;6.43;;;3.37;;
11935;SDS011;6027;48.576;9.180;2022-11-23T09:16:13;7.57;;;3.20;;
11935;SDS011;6027;48.576;9.180;2022-11-23T09:18:39;3.40;;;2.30;;
11935;SDS011;6027;48.576;9.180;2022-11-23T09:21:04;5.47;;;2.70;;
11935;SDS011;6027;48.576;9.180;2022-11-23T09:23:31;6.13;;;2.60;;
11935;SDS011;6027;48.576;9.180;2022-11-23T09:26:01;4.70;;;2.50;;
11935;SDS011;6027;48.576;9.180;2022-11-23T09:28:28;4.07;;;2.40;;
11935;SDS011;6027;48.576;9.180;2022-11-23T09:30:54;4.77;;;2.33;;
11935;SDS011;6027;48.576;9.180;2022-11-23T09:33:21;4.77;;;2.40;;
11935;SDS011;6027;48.576;9.180;2022-11-23T09:35:58;4.50;;;2.13;;
11935;SDS011;6027;48.576;9.180;2022-11-23T09:38:25;3.47;;;2.30;;
11935;SDS011;6027;48.576;9.180;2022-11-23T09:41:18;4.23;;;2.43;;
11935;SDS011;6027;48.576;9.180;2022-11-23T09:49:44;5.77;;;2.50;;
11935;SDS011;6027;48.576;9.180;2022-11-23T09:52:15;3.80;;;2.37;;
11935;SDS011;6027;48.576;9.180;2022-11-23T09:54:43;5.37;;;2.30;;
11935;SDS011;6027;48.576;9.180;2022-11-23T09:57:11;5.33;;;2.20;;
11935;SDS011;6027;48.576;9.180;2022-11-23T09:59:42;5.57;;;2.43;;
11935;SDS011;6027;48.576;9.180;2022-11-23T10:02:22;4.73;;;2.40;;
11935;SDS011;6027;48.576;9.180;2022-11-23T10:04:50;3.60;;;2.43;;
11935;SDS011;6027;48.576;9.180;2022-11-23T10:09:53;6.77;;;2.97;;
11935;SDS011;6027;48.576;9.180;2022-11-23T10:12:53;2.97;;;2.40;;
11935;SDS011;6027;48.576;9.180;2022-11-23T10:15:38;4.07;;;2.60;;
11935;SDS011;6027;48.576;9.180;2022-11-23T10:24:16;6.77;;;2.60;;
11935;SDS011;6027;48.576;9.180;2022-11-23T10:26:48;3.20;;;2.57;;
11935;SDS011;6027;48.576;9.180;2022-11-23T10:31:58;3.30;;;2.33;;
11935;SDS011;6027;48.576;9.180;2022-11-23T10:37:10;4.10;;;2.70;;
11935;SDS011;6027;48.576;9.180;2022-11-23T10:39:36;2.93;;;2.43;;
11935;SDS011;6027;48.576;9.180;2022-11-23T10:42:07;3.97;;;2.40;;
11935;SDS011;6027;48.576;9.180;2022-11-23T10:44:57;3.80;;;2.63;;
11935;SDS011;6027;48.576;9.180;2022-11-23T10:47:38;3.97;;;2.40;;
11935;SDS011;6027;48.576;9.180;2022-11-23T10:53:29;1.70;;;1.40;;
11935;SDS011;6027;48.576;9.180;2022-11-23T11:01:23;3.87;;;1.90;;
11935;SDS011;6027;48.576;9.180;2022-11-23T11:03:50;1.93;;;1.47;;
11935;SDS011;6027;48.576;9.180;2022-11-23T11:06:22;1.63;;;1.40;;
11935;SDS011;6027;48.576;9.180;2022-11-23T11:09:04;2.47;;;1.40;;
11935;SDS011;6027;48.576;9.180;2022-11-23T11:11:47;3.93;;;1.60;;
11935;SDS011;6027;48.576;9.180;2022-11-23T11:14:20;2.97;;;1.25;;
11935;SDS011;6027;48.576;9.180;2022-11-23T11:16:53;1.93;;;1.40;;
11935;SDS011;6027;48.576;9.180;2022-11-23T11:19:30;2.67;;;1.50;;
11935;SDS011;6027;48.576;9.180;2022-11-23T11:21:58;2.60;;;1.47;;
11935;SDS011;6027;48.576;9.180;2022-11-23T11:27:14;1.60;;;1.23;;
11935;SDS011;6027;48.576;9.180;2022-11-23T11:37:38;3.80;;;1.50;;
11935;SDS011;6027;48.576;9.180;2022-11-23T11:40:09;2.60;;;1.30;;
11935;SDS011;6027;48.576;9.180;2022-11-23T11:45:23;2.45;;;1.20;;
11935;SDS011;6027;48.576;9.180;2022-11-23T11:47:56;1.70;;;1.00;;
11935;SDS011;6027;48.576;9.180;2022-11-23T11:50:30;2.53;;;1.20;;
11935;SDS011;6027;48.576;9.180;2022-11-23T11:53:11;2.93;;;1.43;;
11935;SDS011;6027;48.576;9.180;2022-11-23T11:55:46;2.97;;;1.35;;
11935;SDS011;6027;48.576;9.180;2022-11-23T11:58:17;1.50;;;1.10;;
11935;SDS011;6027;48.576;9.180;2022-11-23T12:00:46;2.57;;;1.30;;
11935;SDS011;6027;48.576;9.180;2022-11-23T12:06:03;3.20;;;1.45;;
11935;SDS011;6027;48.576;9.180;2022-11-23T12:08:42;2.93;;;1.17;;
11935;SDS011;6027;48.576;9.180;2022-11-23T12:11:35;1.30;;;0.93;;
11935;SDS011;6027;48.576;9.180;2022-11-23T12:14:02;3.07;;;1.23;;
11935;SDS011;6027;48.576;9.180;2022-11-23T12:16:33;5.70;;;1.30;;
11935;SDS011;6027;48.576;9.180;2022-11-23T12:27:31;2.37;;;0.90;;
11935;SDS011;6027;48.576;9.180;2022-11-23T12:30:13;3.40;;;0.98;;
11935;SDS011;6027;48.576;9.180;2022-11-23T12:40:52;2.03;;;1.10;;
11935;SDS011;6027;48.576;9.180;2022-11-23T12:59:47;4.30;;;1.00;;
11935;SDS011;6027;48.576;9.180;2022-11-23T13:02:25;2.45;;;0.80;;
11935;SDS011;6027;48.576;9.180;2022-11-23T13:10:22;3.30;;;1.23;;
11935;SDS011;6027;48.576;9.180;2022-11-23T13:13:34;2.83;;;1.20;;
11935;SDS011;6027;48.576;9.180;2022-11-23T13:38:27;4.00;;;1.30;;
11935;SDS011;6027;48.576;9.180;2022-11-23T13:40:40;2.28;;;0.93;;
11935;SDS011;6027;48.576;9.180;2022-11-23T13:48:49;1.05;;;0.77;;
11935;SDS011;6027;48.576;9.180;2022-11-23T13:51:24;1.80;;;0.80;;
11935;SDS011;6027;48.576;9.180;2022-11-23T13:53:58;2.22;;;1.08;;
11935;SDS011;6027;48.576;9.180;2022-11-23T13:57:01;2.83;;;0.90;;
11935;SDS011;6027;48.576;9.180;2022-11-23T13:59:29;2.95;;;0.95;;
11935;SDS011;6027;48.576;9.180;2022-11-23T14:04:32;2.20;;;1.15;;
11935;SDS011;6027;48.576;9.180;2022-11-23T14:07:02;3.05;;;1.20;;
11935;SDS011;6027;48.576;9.180;2022-11-23T14:12:43;2.83;;;0.82;;
11935;SDS011;6027;48.576;9.180;2022-11-23T14:15:25;2.03;;;1.10;;
11935;SDS011;6027;48.576;9.180;2022-11-23T14:36:34;4.65;;;1.40;;
11935;SDS011;6027;48.576;9.180;2022-11-23T14:42:17;1.98;;;0.98;;
11935;SDS011;6027;48.576;9.180;2022-11-23T14:44:46;1.67;;;0.90;;
11935;SDS011;6027;48.576;9.180;2022-11-23T14:47:12;2.85;;;1.10;;
11935;SDS011;6027;48.576;9.180;2022-11-23T14:49:47;2.13;;;0.90;;
11935;SDS011;6027;48.576;9.180;2022-11-23T14:52:26;4.13;;;1.23;;
11935;SDS011;6027;48.576;9.180;2022-11-23T14:54:54;2.63;;;1.35;;
11935;SDS011;6027;48.576;9.180;2022-11-23T14:57:22;3.30;;;1.10;;
11935;SDS011;6027;48.576;9.180;2022-11-23T14:59:54;2.33;;;1.13;;
11935;SDS011;6027;48.576;9.180;2022-11-23T15:05:09;2.40;;;1.10;;
11935;SDS011;6027;48.576;9.180;2022-11-23T15:07:43;2.28;;;1.00;;
11935;SDS011;6027;48.576;9.180;2022-11-23T15:13:21;1.52;;;1.00;;
11935;SDS011;6027;48.576;9.180;2022-11-23T15:15:51;3.67;;;1.23;;
11935;SDS011;6027;48.576;9.180;2022-11-23T15:18:33;1.63;;;0.90;;
11935;SDS011;6027;48.576;9.180;2022-11-23T15:23:37;4.22;;;1.60;;
11935;SDS011;6027;48.576;9.180;2022-11-23T15:26:11;2.33;;;1.00;;
11935;SDS011;6027;48.576;9.180;2022-11-23T15:28:38;1.40;;;0.93;;
11935;SDS011;6027;48.576;9.180;2022-11-23T15:33:50;3.55;;;1.40;;
11935;SDS011;6027;48.576;9.180;2022-11-23T15:36:29;3.88;;;1.30;;
11935;SDS011;6027;48.576;9.180;2022-11-23T15:39:00;1.63;;;1.08;;
11935;SDS011;6027;48.576;9.180;2022-11-23T15:41:27;6.90;;;3.42;;
11935;SDS011;6027;48.576;9.180;2022-11-23T15:43:58;11.33;;;8.07;;
11935;SDS011;6027;48.576;9.180;2022-11-23T15:46:28;18.58;;;13.45;;
11935;SDS011;6027;48.576;9.180;2022-11-23T15:49:01;10.53;;;8.23;;
11935;SDS011;6027;48.576;9.180;2022-11-23T15:51:34;10.40;;;4.10;;
11935;SDS011;6027;48.576;9.180;2022-11-23T15:54:03;4.57;;;3.28;;
11935;SDS011;6027;48.576;9.180;2022-11-23T15:56:30;3.17;;;1.75;;
11935;SDS011;6027;48.576;9.180;2022-11-23T15:59:04;2.00;;;1.40;;
11935;SDS011;6027;48.576;9.180;2022-11-23T16:01:51;1.67;;;1.13;;
11935;SDS011;6027;48.576;9.180;2022-11-23T16:04:28;2.77;;;1.57;;
11935;SDS011;6027;48.576;9.180;2022-11-23T16:07:05;6.40;;;1.70;;
11935;SDS011;6027;48.576;9.180;2022-11-23T16:09:40;5.07;;;3.17;;
11935;SDS011;6027;48.576;9.180;2022-11-23T16:12:21;4.40;;;2.70;;
11935;SDS011;6027;48.576;9.180;2022-11-23T16:14:52;56.55;;;30.90;;
11935;SDS011;6027;48.576;9.180;2022-11-23T16:17:22;34.80;;;20.33;;
11935;SDS011;6027;48.576;9.180;2022-11-23T16:19:55;29.73;;;18.00;;
11935;SDS011;6027;48.576;9.180;2022-11-23T16:24:53;7.50;;;4.50;;
11935;SDS011;6027;48.576;9.180;2022-11-23T16:27:25;4.87;;;2.43;;
11935;SDS011;6027;48.576;9.180;2022-11-23T16:29:51;6.90;;;5.37;;
11935;SDS011;6027;48.576;9.180;2022-11-23T16:35:15;10.10;;;5.37;;
11935;SDS011;6027;48.576;9.180;2022-11-23T16:37:42;9.45;;;7.22;;
11935;SDS011;6027;48.576;9.180;2022-11-23T16:40:08;8.77;;;6.50;;
11935;SDS011;6027;48.576;9.180;2022-11-23T16:42:34;14.48;;;10.85;;
11935;SDS011;6027;48.576;9.180;2022-11-23T16:44:59;26.92;;;19.17;;
11935;SDS011;6027;48.576;9.180;2022-11-23T16:47:25;12.63;;;10.63;;
11935;SDS011;6027;48.576;9.180;2022-11-23T16:49:52;9.60;;;5.47;;
11935;SDS011;6027;48.576;9.180;2022-11-23T16:52:19;7.43;;;5.85;;
11935;SDS011;6027;48.576;9.180;2022-11-23T16:54:46;6.70;;;4.30;;
11935;SDS011;6027;48.576;9.180;2022-11-23T16:57:21;9.20;;;5.97;;
11935;SDS011;6027;48.576;9.180;2022-11-23T16:59:51;8.27;;;5.10;;
11935;SDS011;6027;48.576;9.180;2022-11-23T17:02:16;6.27;;;3.77;;
11935;SDS011;6027;48.576;9.180;2022-11-23T17:04:42;3.80;;;3.30;;
11935;SDS011;6027;48.576;9.180;2022-11-23T17:07:08;3.55;;;2.50;;
11935;SDS011;6027;48.576;9.180;2022-11-23T17:09:34;3.67;;;2.20;;
11935;SDS011;6027;48.576;9.180;2022-11-23T17:12:00;3.43;;;1.90;;
11935;SDS011;6027;48.576;9.180;2022-11-23T17:14:26;2.23;;;1.63;;
11935;SDS011;6027;48.576;9.180;2022-11-23T17:16:54;2.93;;;1.83;;
11935;SDS011;6027;48.576;9.180;2022-11-23T17:19:19;2.50;;;2.17;;
11935;SDS011;6027;48.576;9.180;2022-11-23T17:21:46;2.77;;;1.80;;
11935;SDS011;6027;48.576;9.180;2022-11-23T17:24:12;3.10;;;2.03;;
11935;SDS011;6027;48.576;9.180;2022-11-23T17:26:44;3.30;;;1.70;;
11935;SDS011;6027;48.576;9.180;2022-11-23T17:29:13;9.57;;;6.63;;
11935;SDS011;6027;48.576;9.180;2022-11-23T17:31:41;5.40;;;2.50;;
11935;SDS011;6027;48.576;9.180;2022-11-23T17:34:13;3.37;;;2.20;;
11935;SDS011;6027;48.576;9.180;2022-11-23T17:36:40;3.37;;;2.20;;
11935;SDS011;6027;48.576;9.180;2022-11-23T17:39:08;5.60;;;2.20;;
11935;SDS011;6027;48.576;9.180;2022-11-23T17:41:42;4.50;;;2.70;;
11935;SDS011;6027;48.576;9.180;2022-11-23T17:44:07;6.33;;;3.60;;
11935;SDS011;6027;48.576;9.180;2022-11-23T17:46:33;4.87;;;2.83;;
11935;SDS011;6027;48.576;9.180;2022-11-23T17:48:59;5.47;;;2.97;;
11935;SDS011;6027;48.576;9.180;2022-11-23T17:51:26;4.70;;;3.03;;
11935;SDS011;6027;48.576;9.180;2022-11-23T17:53:53;7.67;;;5.13;;
11935;SDS011;6027;48.576;9.180;2022-11-23T17:56:19;8.43;;;6.10;;
11935;SDS011;6027;48.576;9.180;2022-11-23T17:58:46;6.33;;;4.20;;
11935;SDS011;6027;48.576;9.180;2022-11-23T18:01:13;5.07;;;3.40;;
11935;SDS011;6027;48.576;9.180;2022-11-23T18:03:43;6.33;;;3.40;;